createdAt,value
2023-05-01T00:02:38.458Z,3.69
2023-05-01T00:05:40.597Z,3.65
2023-05-01T00:08:42.656Z,3.67
2023-05-01T00:11:44.724Z,3.59
2023-05-01T00:14:46.806Z,3.58
2023-05-01T00:17:49.137Z,3.34
2023-05-01T00:20:51.228Z,3.52
2023-05-01T00:23:53.296Z,3.48
2023-05-01T00:26:55.348Z,3.49
2023-05-01T00:29:57.761Z,3.52
2023-05-01T00:33:01.281Z,3.48
2023-05-01T00:36:03.625Z,3.29
2023-05-01T00:39:08.152Z,3.39
2023-05-01T00:42:10.362Z,3.30
2023-05-01T00:45:12.471Z,3.41
2023-05-01T00:48:15.384Z,3.33
2023-05-01T00:51:17.356Z,3.28
2023-05-01T00:54:20.466Z,3.27
2023-05-01T00:57:22.737Z,3.28
2023-05-01T01:00:25.056Z,3.28
2023-05-01T01:03:27.834Z,3.20
2023-05-01T01:06:46.809Z,3.21
2023-05-01T01:09:51.495Z,3.25
2023-05-01T01:13:10.867Z,3.26
2023-05-01T01:16:21.864Z,3.19
2023-05-01T01:20:01.633Z,3.16
2023-05-01T01:23:11.085Z,3.03
2023-05-01T01:26:34.793Z,2.97
2023-05-01T01:30:08.936Z,2.98
2023-05-01T01:33:41.992Z,2.96
2023-05-01T01:36:56.322Z,2.93
2023-05-01T01:40:09.996Z,2.92
2023-05-01T01:43:16.854Z,2.89
2023-05-01T01:46:20.744Z,2.84
2023-05-01T01:49:26.651Z,2.77
2023-05-01T01:52:30.244Z,2.77
2023-05-01T01:55:35.257Z,2.77
2023-05-01T01:58:40.148Z,2.74
2023-05-01T02:01:44.870Z,2.71
2023-05-01T02:04:49.050Z,2.66
2023-05-01T02:07:52.918Z,2.64
2023-05-01T02:11:01.857Z,2.58
2023-05-01T02:14:06.253Z,2.58
2023-05-01T02:17:10.339Z,2.53
2023-05-01T02:20:13.806Z,2.47
2023-05-01T02:23:17.030Z,2.44
2023-05-01T02:26:23.790Z,2.40
2023-05-01T02:29:26.428Z,2.36
2023-05-01T02:32:28.749Z,2.35
2023-05-01T02:35:31.473Z,2.32
2023-05-01T02:38:33.529Z,2.00
2023-05-01T02:41:37.078Z,2.22
2023-05-01T02:44:44.070Z,2.16
2023-05-01T02:47:50.765Z,2.12
2023-05-01T02:50:54.335Z,2.10
2023-05-01T02:53:57.245Z,2.07
2023-05-01T02:56:59.785Z,2.02
2023-05-01T03:00:01.812Z,1.98
2023-05-01T03:03:04.039Z,1.97
2023-05-01T03:06:06.255Z,1.93
2023-05-01T03:09:08.292Z,1.90
2023-05-01T03:12:11.823Z,1.90
2023-05-01T03:15:13.872Z,1.90
2023-05-01T03:18:16.278Z,1.93
2023-05-01T03:21:18.384Z,1.99
2023-05-01T03:24:20.392Z,1.91
2023-05-01T03:27:22.310Z,1.96
2023-05-01T03:30:24.269Z,1.89
2023-05-01T03:33:28.063Z,1.86
2023-05-01T03:36:30.222Z,1.87
2023-05-01T03:39:32.470Z,1.83
2023-05-01T03:43:00.300Z,1.81
2023-05-01T03:46:02.449Z,1.84
2023-05-01T03:49:04.989Z,1.85
2023-05-01T03:52:12.746Z,1.84
2023-05-01T03:55:14.934Z,1.83
2023-05-01T03:58:17.951Z,1.86
2023-05-01T04:01:20.632Z,1.82
2023-05-01T04:04:23.351Z,1.78
2023-05-01T04:07:31.110Z,1.76
2023-05-01T04:10:33.244Z,1.76
2023-05-01T04:13:39.300Z,1.79
2023-05-01T04:16:41.575Z,1.79
2023-05-01T04:19:43.723Z,1.82
2023-05-01T04:22:45.852Z,1.89
2023-05-01T04:25:47.907Z,1.72
2023-05-01T04:28:52.706Z,1.86
2023-05-01T04:31:58.403Z,1.87
2023-05-01T04:35:00.572Z,1.90
2023-05-01T04:38:03.393Z,1.92
2023-05-01T04:41:06.378Z,1.92
2023-05-01T04:44:08.534Z,2.01
2023-05-01T04:47:10.636Z,2.08
2023-05-01T04:50:12.697Z,2.20
2023-05-01T04:53:15.554Z,2.22
2023-05-01T04:56:18.268Z,2.24
2023-05-01T04:59:21.892Z,2.29
2023-05-01T05:02:24.229Z,2.37
2023-05-01T05:05:26.557Z,2.44
2023-05-01T05:08:28.962Z,2.50
2023-05-01T05:11:36.576Z,2.55
2023-05-01T05:14:42.906Z,2.61
2023-05-01T05:17:45.919Z,2.71
2023-05-01T05:20:48.688Z,2.55
2023-05-01T05:23:51.154Z,2.81
2023-05-01T05:26:53.157Z,2.89
2023-05-01T05:29:55.866Z,2.97
2023-05-01T05:32:58.223Z,3.01
2023-05-01T05:36:00.590Z,3.06
2023-05-01T05:39:08.595Z,3.20
2023-05-01T05:42:10.852Z,3.28
2023-05-01T05:45:12.860Z,3.35
2023-05-01T05:48:15.226Z,3.46
2023-05-01T05:51:17.381Z,3.55
2023-05-01T05:54:19.518Z,3.66
2023-05-01T05:57:23.372Z,3.78
2023-05-01T06:00:26.246Z,3.91
2023-05-01T06:03:29.245Z,4.06
2023-05-01T06:06:35.870Z,4.23
2023-05-01T06:09:38.137Z,4.34
2023-05-01T06:12:40.565Z,4.55
2023-05-01T06:15:48.129Z,4.76
2023-05-01T06:18:51.180Z,4.99
2023-05-01T06:21:53.129Z,5.18
2023-05-01T06:24:55.781Z,5.44
2023-05-01T06:28:00.254Z,5.66
2023-05-01T06:31:02.347Z,5.92
2023-05-01T06:34:11.546Z,6.24
2023-05-01T06:37:27.217Z,6.61
2023-05-01T06:40:31.834Z,7.04
2023-05-01T06:43:33.872Z,7.45
2023-05-01T06:46:36.027Z,7.90
2023-05-01T06:49:38.113Z,8.24
2023-05-01T06:52:40.768Z,8.43
2023-05-01T06:55:42.852Z,8.79
2023-05-01T06:58:44.732Z,9.01
2023-05-01T07:01:46.907Z,9.31
2023-05-01T07:04:48.908Z,9.60
2023-05-01T07:08:00.837Z,9.99
2023-05-01T07:11:03.732Z,10.39
2023-05-01T07:14:05.756Z,10.66
2023-05-01T07:17:09.409Z,10.76
2023-05-01T07:20:12.731Z,11.06
2023-05-01T07:23:14.740Z,11.28
2023-05-01T07:26:16.985Z,11.33
2023-05-01T07:29:18.983Z,11.47
2023-05-01T07:32:21.262Z,11.56
2023-05-01T07:35:24.312Z,11.75
2023-05-01T07:38:27.195Z,11.93
2023-05-01T07:41:29.261Z,12.05
2023-05-01T07:44:31.284Z,12.16
2023-05-01T07:47:33.777Z,12.28
2023-05-01T07:50:36.026Z,12.54
2023-05-01T07:53:38.382Z,12.65
2023-05-01T07:56:40.477Z,12.75
2023-05-01T07:59:42.477Z,12.71
2023-05-01T08:02:44.760Z,13.01
2023-05-01T08:05:46.790Z,13.16
2023-05-01T08:08:48.770Z,13.38
2023-05-01T08:11:50.850Z,13.32
2023-05-01T08:14:53.420Z,13.22
2023-05-01T08:17:55.563Z,13.41
2023-05-01T08:20:57.692Z,13.45
2023-05-01T08:23:59.712Z,13.36
2023-05-01T08:27:02.741Z,13.57
2023-05-01T08:30:05.257Z,13.85
2023-05-01T08:33:07.466Z,14.11
2023-05-01T08:36:10.572Z,14.28
2023-05-01T08:39:12.700Z,14.14
2023-05-01T08:42:14.929Z,14.13
2023-05-01T08:45:19.175Z,14.12
2023-05-01T08:48:22.905Z,14.35
2023-05-01T08:51:26.800Z,14.36
2023-05-01T08:54:31.420Z,14.18
2023-05-01T08:57:34.252Z,14.26
2023-05-01T09:00:38.333Z,14.32
2023-05-01T09:03:40.964Z,14.71
2023-05-01T09:06:45.265Z,14.99
2023-05-01T09:09:47.341Z,15.04
2023-05-01T09:12:56.350Z,15.29
2023-05-01T09:15:58.435Z,15.23
2023-05-01T09:19:00.746Z,15.46
2023-05-01T09:22:03.001Z,15.65
2023-05-01T09:25:05.396Z,15.56
2023-05-01T09:28:07.819Z,15.71
2023-05-01T09:31:29.938Z,15.86
2023-05-01T09:34:32.045Z,15.83
2023-05-01T09:37:35.202Z,15.90
2023-05-01T09:40:37.236Z,15.97
2023-05-01T09:43:39.363Z,15.92
2023-05-01T09:46:44.086Z,16.07
2023-05-01T09:49:50.457Z,16.09
2023-05-01T09:52:52.863Z,16.24
2023-05-01T09:56:01.916Z,16.20
2023-05-01T09:59:18.055Z,16.40
2023-05-01T10:02:29.841Z,16.37
2023-05-01T10:05:44.591Z,16.15
2023-05-01T10:08:48.407Z,16.32
2023-05-01T10:11:55.855Z,16.52
2023-05-01T10:14:58.433Z,16.66
2023-05-01T10:18:00.745Z,16.82
2023-05-01T10:21:04.867Z,17.01
2023-05-01T10:24:08.520Z,17.20
2023-05-01T10:27:12.031Z,17.10
2023-05-01T10:30:16.726Z,17.21
2023-05-01T10:33:19.166Z,17.35
2023-05-01T10:36:43.200Z,17.41
2023-05-01T10:39:45.248Z,17.38
2023-05-01T10:43:16.301Z,17.20
2023-05-01T10:46:21.233Z,17.33
2023-05-01T10:49:23.546Z,17.46
2023-05-01T10:52:25.519Z,17.64
2023-05-01T10:55:38.643Z,17.67
2023-05-01T10:58:40.611Z,17.83
2023-05-01T11:01:45.806Z,17.88
2023-05-01T11:04:51.756Z,18.25
2023-05-01T11:08:34.395Z,18.33
2023-05-01T11:11:36.425Z,18.52
2023-05-01T11:14:53.976Z,18.21
2023-05-01T11:17:57.398Z,17.78
2023-05-01T11:20:59.788Z,18.02
2023-05-01T11:24:02.524Z,18.06
2023-05-01T11:27:05.141Z,18.04
2023-05-01T11:30:08.351Z,17.95
2023-05-01T11:33:11.233Z,18.00
2023-05-01T11:36:14.318Z,17.93
2023-05-01T11:39:17.585Z,17.98
2023-05-01T11:42:22.964Z,18.08
2023-05-01T11:45:25.474Z,17.96
2023-05-01T11:48:28.426Z,17.97
2023-05-01T11:51:32.095Z,17.81
2023-05-01T11:54:47.740Z,17.67
2023-05-01T11:57:51.876Z,17.16
2023-05-01T12:00:53.881Z,17.00
2023-05-01T12:03:56.136Z,16.90
2023-05-01T12:06:58.319Z,16.96
2023-05-01T12:10:01.270Z,17.07
2023-05-01T12:13:07.890Z,17.27
2023-05-01T12:16:10.324Z,17.66
2023-05-01T12:19:16.205Z,18.14
2023-05-01T12:22:18.780Z,18.37
2023-05-01T12:25:20.983Z,18.38
2023-05-01T12:28:23.011Z,18.32
2023-05-01T12:31:26.330Z,18.02
2023-05-01T12:34:34.382Z,17.82
2023-05-01T12:37:36.512Z,17.71
2023-05-01T12:40:40.189Z,17.72
2023-05-01T12:43:44.252Z,17.87
2023-05-01T12:46:56.449Z,17.87
2023-05-01T12:50:03.395Z,17.73
2023-05-01T12:53:06.536Z,17.82
2023-05-01T12:56:08.659Z,17.89
2023-05-01T12:59:22.562Z,18.02
2023-05-01T13:02:30.641Z,17.96
2023-05-01T13:05:32.743Z,17.94
2023-05-01T13:08:37.755Z,17.97
2023-05-01T13:11:39.880Z,17.99
2023-05-01T13:14:43.680Z,17.87
2023-05-01T13:17:46.110Z,17.76
2023-05-01T13:20:48.399Z,17.65
2023-05-01T13:23:56.103Z,17.70
2023-05-01T13:27:02.883Z,17.77
2023-05-01T13:30:07.937Z,17.74
2023-05-01T13:33:11.276Z,17.78
2023-05-01T13:36:25.085Z,18.04
2023-05-01T13:39:28.580Z,18.23
2023-05-01T13:42:30.833Z,18.53
2023-05-01T13:45:32.949Z,18.64
2023-05-01T13:48:35.020Z,18.51
2023-05-01T13:51:43.000Z,18.67
2023-05-01T13:54:47.037Z,18.50
2023-05-01T13:57:49.779Z,18.67
2023-05-01T14:00:51.921Z,18.70
2023-05-01T14:03:57.526Z,18.48
2023-05-01T14:07:01.460Z,18.57
2023-05-01T14:10:03.898Z,18.50
2023-05-01T14:13:06.580Z,18.59
2023-05-01T14:16:11.057Z,18.77
2023-05-01T14:19:16.802Z,18.80
2023-05-01T14:22:19.033Z,18.78
2023-05-01T14:25:34.747Z,18.49
2023-05-01T14:28:48.198Z,18.39
2023-05-01T14:31:50.189Z,18.35
2023-05-01T14:34:52.804Z,18.07
2023-05-01T14:37:55.515Z,18.12
2023-05-01T14:40:57.882Z,18.17
2023-05-01T14:44:01.271Z,18.22
2023-05-01T14:47:03.547Z,18.11
2023-05-01T14:50:07.076Z,18.11
2023-05-01T14:53:09.188Z,18.04
2023-05-01T14:56:12.803Z,18.12
2023-05-01T14:59:14.915Z,17.98
2023-05-01T15:02:17.298Z,17.91
2023-05-01T15:05:19.354Z,18.00
2023-05-01T15:08:21.958Z,18.05
2023-05-01T15:11:23.981Z,17.99
2023-05-01T15:14:27.435Z,17.87
2023-05-01T15:17:31.096Z,17.91
2023-05-01T15:20:34.313Z,17.77
2023-05-01T15:23:37.297Z,17.76
2023-05-01T15:26:39.284Z,17.68
2023-05-01T15:29:41.829Z,17.61
2023-05-01T15:32:44.239Z,17.47
2023-05-01T15:35:47.402Z,17.37
2023-05-01T15:38:49.414Z,17.39
2023-05-01T15:41:52.966Z,17.33
2023-05-01T15:44:54.978Z,17.34
2023-05-01T15:47:57.028Z,17.18
2023-05-01T15:50:59.088Z,17.19
2023-05-01T15:54:02.225Z,17.16
2023-05-01T15:57:04.223Z,17.17
2023-05-01T16:00:08.609Z,17.14
2023-05-01T16:03:11.874Z,17.13
2023-05-01T16:06:17.258Z,17.07
2023-05-01T16:09:20.401Z,17.01
2023-05-01T16:12:22.816Z,16.94
2023-05-01T16:15:24.872Z,16.89
2023-05-01T16:18:26.817Z,16.77
2023-05-01T16:21:29.524Z,16.76
2023-05-01T16:24:35.235Z,16.69
2023-05-01T16:27:45.947Z,16.63
2023-05-01T16:30:49.034Z,16.52
2023-05-01T16:33:53.553Z,16.46
2023-05-01T16:36:56.685Z,16.43
2023-05-01T16:40:00.304Z,16.31
2023-05-01T16:43:03.148Z,16.22
2023-05-01T16:46:05.257Z,16.10
2023-05-01T16:49:07.594Z,15.89
2023-05-01T16:52:13.658Z,16.03
2023-05-01T16:55:16.096Z,15.98
2023-05-01T16:58:18.171Z,15.97
2023-05-01T17:01:20.229Z,15.84
2023-05-01T17:04:22.742Z,15.78
2023-05-01T17:07:24.900Z,15.67
2023-05-01T17:10:26.925Z,15.46
2023-05-01T17:13:29.052Z,15.54
2023-05-01T17:16:32.573Z,15.46
2023-05-01T17:19:34.643Z,15.39
2023-05-01T17:22:37.067Z,15.32
2023-05-01T17:25:39.136Z,15.48
2023-05-01T17:28:41.463Z,15.40
2023-05-01T17:31:44.032Z,15.38
2023-05-01T17:34:46.556Z,15.22
2023-05-01T17:37:48.737Z,15.12
2023-05-01T17:40:50.995Z,15.12
2023-05-01T17:43:55.339Z,15.04
2023-05-01T17:46:57.258Z,14.94
2023-05-01T17:50:01.140Z,14.81
2023-05-01T17:53:03.683Z,14.51
2023-05-01T17:56:05.642Z,14.51
2023-05-01T17:59:07.820Z,14.41
2023-05-01T18:02:10.564Z,14.34
2023-05-01T18:05:14.673Z,14.20
2023-05-01T18:08:17.549Z,14.05
2023-05-01T18:11:19.801Z,13.97
2023-05-01T18:14:22.261Z,13.90
2023-05-01T18:17:25.403Z,13.90
2023-05-01T18:20:27.851Z,13.68
2023-05-01T18:23:30.294Z,13.79
2023-05-01T18:26:33.178Z,13.75
2023-05-01T18:29:35.559Z,13.63
2023-05-01T18:32:47.755Z,13.57
2023-05-01T18:35:51.656Z,13.49
2023-05-01T18:38:54.431Z,13.42
2023-05-01T18:41:58.031Z,13.37
2023-05-01T18:45:00.888Z,13.33
2023-05-01T18:48:05.958Z,13.27
2023-05-01T18:51:10.575Z,13.07
2023-05-01T18:54:13.213Z,13.13
2023-05-01T18:57:15.680Z,13.05
2023-05-01T19:00:20.505Z,13.03
2023-05-01T19:03:23.368Z,12.94
2023-05-01T19:06:28.293Z,12.87
2023-05-01T19:09:31.291Z,12.78
2023-05-01T19:12:33.615Z,12.70
2023-05-01T19:15:36.593Z,12.61
2023-05-01T19:18:41.105Z,12.56
2023-05-01T19:21:44.189Z,12.47
2023-05-01T19:24:47.134Z,12.41
2023-05-01T19:27:51.689Z,12.39
2023-05-01T19:30:56.809Z,12.37
2023-05-01T19:33:59.844Z,12.34
2023-05-01T19:37:03.125Z,12.32
2023-05-01T19:40:08.734Z,12.25
2023-05-01T19:43:14.420Z,12.22
2023-05-01T19:46:17.402Z,12.15
2023-05-01T19:49:22.077Z,12.08
2023-05-01T19:52:25.089Z,11.99
2023-05-01T19:55:28.625Z,11.93
2023-05-01T19:58:31.254Z,11.84
2023-05-01T20:01:33.755Z,11.74
2023-05-01T20:04:36.385Z,11.67
2023-05-01T20:07:39.160Z,11.59
2023-05-01T20:10:42.118Z,11.54
2023-05-01T20:13:45.642Z,11.47
2023-05-01T20:16:49.357Z,11.39
2023-05-01T20:19:52.689Z,11.31
2023-05-01T20:23:16.572Z,11.24
2023-05-01T20:26:19.699Z,11.03
2023-05-01T20:29:22.071Z,11.11
2023-05-01T20:32:24.116Z,11.05
2023-05-01T20:35:26.222Z,11.03
2023-05-01T20:38:28.450Z,10.92
2023-05-01T20:41:31.489Z,10.81
2023-05-01T20:44:33.852Z,10.78
2023-05-01T20:47:36.043Z,10.74
2023-05-01T20:50:38.304Z,10.74
2023-05-01T20:53:40.419Z,10.73
2023-05-01T20:56:42.424Z,10.58
2023-05-01T20:59:48.382Z,10.63
2023-05-01T21:02:52.049Z,10.56
2023-05-01T21:06:01.831Z,10.49
2023-05-01T21:09:05.429Z,10.37
2023-05-01T21:12:07.547Z,10.43
2023-05-01T21:15:11.308Z,10.38
2023-05-01T21:18:15.148Z,10.11
2023-05-01T21:21:17.349Z,10.22
2023-05-01T21:24:22.904Z,10.15
2023-05-01T21:27:26.244Z,10.10
2023-05-01T21:30:34.690Z,10.02
2023-05-01T21:33:37.754Z,9.94
2023-05-01T21:36:47.224Z,9.91
2023-05-01T21:39:50.107Z,9.86
2023-05-01T21:42:54.553Z,9.82
2023-05-01T21:45:56.805Z,9.78
2023-05-01T21:48:58.794Z,9.69
2023-05-01T21:52:01.932Z,9.70
2023-05-01T21:55:08.682Z,9.66
2023-05-01T21:58:12.496Z,9.50
2023-05-01T22:01:16.554Z,9.29
2023-05-01T22:04:19.095Z,9.46
2023-05-01T22:07:21.545Z,9.45
2023-05-01T22:10:23.606Z,9.42
2023-05-01T22:13:32.224Z,9.37
2023-05-01T22:16:34.803Z,9.27
2023-05-01T22:19:38.056Z,9.24
2023-05-01T22:22:41.736Z,9.21
2023-05-01T22:25:43.861Z,9.23
2023-05-01T22:28:46.003Z,9.23
2023-05-01T22:31:48.098Z,9.20
2023-05-01T22:34:50.209Z,9.14
2023-05-01T22:37:52.239Z,8.93
2023-05-01T22:40:54.309Z,9.10
2023-05-01T22:43:56.890Z,9.09
2023-05-01T22:47:02.191Z,9.05
2023-05-01T22:50:05.116Z,9.00
2023-05-01T22:53:07.466Z,9.00
2023-05-01T22:56:09.554Z,9.01
2023-05-01T22:59:11.750Z,9.01
2023-05-01T23:02:16.532Z,8.99
2023-05-01T23:05:18.674Z,8.96
2023-05-01T23:08:20.771Z,8.92
2023-05-01T23:11:22.962Z,8.90
2023-05-01T23:14:25.979Z,8.62
2023-05-01T23:17:35.061Z,8.77
2023-05-01T23:20:40.596Z,8.69
2023-05-01T23:23:45.768Z,8.75
2023-05-01T23:26:47.997Z,8.71
2023-05-01T23:29:58.367Z,8.65
2023-05-01T23:33:01.035Z,8.58
2023-05-01T23:36:03.211Z,8.57
2023-05-01T23:39:05.237Z,8.59
2023-05-01T23:42:07.529Z,8.51
2023-05-01T23:45:09.870Z,8.48
2023-05-01T23:48:12.332Z,8.44
2023-05-01T23:51:14.539Z,8.41
2023-05-01T23:54:16.857Z,8.39
2023-05-01T23:57:18.887Z,8.40
